Ackerly, Texas
Current Conditions -  °F | °C
As of 5:35 PM on Friday 19 Dec 2014 (Local Time) from KBPG Reporting Station
Overcast Overcast  
Wind Chill: 46°   Ceiling: 1500
Heat Index: 46°   Visibility: 10mi
Dew Point: 37°   Wind: 3mph
Humidity: 71%   Direction: 350°N
Pressure: 30.16"   Gusts: NA
Location:  32.53°N, 101.72°W
Report Text: KBPG 192335Z AUTO 35003KT 10SM OVC015 08/03 A3016 RMK AO2 T00770028
Loading
Personal Weather Stations






























Interactive Weather Map New forecast layout! Learn more

10-Day Weather Forecast

Advertisements
Track Severe Weather on mobile